Time;durP1;ratioP1;P1;durP2;ratioP2;P2;SDS_P1;SDS_P2;PMS_P1;PMS_P2;Temp;Humidity;BMP_temperature;BMP_pressure;BME280_temperature;BME280_humidity;BME280_pressure;Samples;Min_cycle;Max_cycle;Signal;HPM_P1;HPM_P2
2022/02/12 00:00:22;;;;;;;70.12;38.00;;;;;;;2.99;76.73;101268.30;1821853;78;21113;-69
2022/02/12 00:02:56;;;;;;;53.15;29.55;;;;;;;2.89;76.77;101263.70;1821225;78;21458;-69
2022/02/12 00:05:24;;;;;;;48.78;28.38;;;;;;;2.84;76.92;101272.00;1821013;78;21357;-68
2022/02/12 00:07:56;;;;;;;41.75;25.57;;;;;;;2.79;76.95;101270.78;1821336;78;21125;-68
2022/02/12 00:10:24;;;;;;;50.78;29.15;;;;;;;2.74;77.39;101266.13;1821764;78;20915;-67
2022/02/12 00:12:50;;;;;;;45.63;28.40;;;;;;;2.72;77.70;101259.28;1821698;78;21030;-67
2022/02/12 00:15:17;;;;;;;48.17;31.02;;;;;;;2.66;77.52;101255.89;1822163;78;21412;-67
2022/02/12 00:17:46;;;;;;;44.60;27.70;;;;;;;2.61;77.60;101252.53;1821607;78;20943;-68
2022/02/12 00:20:14;;;;;;;46.28;28.77;;;;;;;2.56;77.67;101253.51;1821434;78;21088;-68
2022/02/12 00:22:41;;;;;;;50.15;31.05;;;;;;;2.56;78.32;101259.53;1821272;78;20991;-68
2022/02/12 00:25:08;;;;;;;55.58;32.83;;;;;;;2.58;78.42;101257.78;1821504;78;21444;-68
2022/02/12 00:27:35;;;;;;;71.53;39.20;;;;;;;2.56;78.22;101242.70;1821654;78;20899;-67
2022/02/12 00:30:04;;;;;;;77.95;44.35;;;;;;;2.53;78.36;101244.03;1821465;78;21341;-68
2022/02/12 00:32:31;;;;;;;62.08;37.35;;;;;;;2.51;78.15;101254.00;1821643;78;21134;-67
2022/02/12 00:34:58;;;;;;;59.03;35.92;;;;;;;2.44;77.82;101255.39;1821216;78;20978;-68
2022/02/12 00:37:28;;;;;;;65.65;40.00;;;;;;;2.38;77.72;101261.10;1821702;78;21013;-67
2022/02/12 00:39:53;;;;;;;68.40;38.00;;;;;;;2.32;77.62;101259.48;1821280;78;20892;-68
2022/02/12 00:42:22;;;;;;;56.40;32.95;;;;;;;2.26;77.57;101258.27;1821774;78;20924;-67
2022/02/12 00:44:50;;;;;;;61.80;33.42;;;;;;;2.17;77.50;101254.53;1821439;78;21152;-69
2022/02/12 00:47:17;;;;;;;66.67;37.93;;;;;;;2.05;77.53;101261.60;1821624;78;20971;-67
2022/02/12 00:49:44;;;;;;;61.75;33.95;;;;;;;1.95;77.46;101265.62;1821438;78;21417;-67
2022/02/12 00:52:11;;;;;;;59.80;33.00;;;;;;;1.82;77.60;101258.06;1821384;78;20852;-66
2022/02/12 00:54:38;;;;;;;58.87;34.75;;;;;;;1.79;77.90;101256.78;1821508;78;21372;-68
2022/02/12 00:57:05;;;;;;;51.92;31.57;;;;;;;1.78;77.92;101271.90;1821391;78;21149;-67
2022/02/12 00:59:32;;;;;;;50.28;30.48;;;;;;;1.78;78.37;101271.90;1821260;78;20883;-67
2022/02/12 01:01:59;;;;;;;48.02;30.32;;;;;;;1.80;78.62;101272.73;1821336;78;20896;-68
2022/02/12 01:04:26;;;;;;;51.33;29.80;;;;;;;1.86;78.83;101270.48;1821342;78;21405;-68
2022/02/12 01:06:54;;;;;;;42.98;26.87;;;;;;;1.89;78.68;101260.53;1821353;78;20876;-68
2022/02/12 01:09:22;;;;;;;51.13;31.05;;;;;;;1.89;78.73;101260.13;1821288;78;21140;-66
2022/02/12 01:11:48;;;;;;;41.88;26.90;;;;;;;1.93;79.03;101261.77;1821546;78;20935;-68
2022/02/12 01:14:15;;;;;;;41.50;26.33;;;;;;;1.96;78.96;101263.48;1821327;78;21530;-69
2022/02/12 01:16:42;;;;;;;44.03;27.05;;;;;;;1.95;79.04;101263.05;1821302;78;20923;-68
2022/02/12 01:19:09;;;;;;;59.80;34.55;;;;;;;1.95;79.13;101262.59;1821444;78;20950;-68
2022/02/12 01:21:36;;;;;;;52.78;33.55;;;;;;;1.95;79.03;101262.59;1821664;78;21048;-68
2022/02/12 01:24:03;;;;;;;57.43;30.77;;;;;;;1.95;78.83;101261.30;1823369;78;20840;-67
2022/02/12 01:26:30;;;;;;;53.02;29.87;;;;;;;1.93;78.62;101252.71;1824727;78;20888;-66
2022/02/12 01:28:57;;;;;;;51.73;31.95;;;;;;;1.88;78.37;101244.62;1824987;78;21542;-67
2022/02/12 01:31:24;;;;;;;47.43;29.23;;;;;;;1.81;78.49;101238.23;1824896;78;20957;-68
2022/02/12 01:33:51;;;;;;;51.75;32.28;;;;;;;1.75;78.72;101240.05;1824900;78;21834;-68
2022/02/12 01:36:17;;;;;;;51.48;31.52;;;;;;;1.72;79.04;101246.56;1824604;78;20911;-68
2022/02/12 01:38:45;;;;;;;52.90;32.95;;;;;;;1.72;79.29;101254.31;1824803;78;20876;-66
2022/02/12 01:41:12;;;;;;;67.90;37.38;;;;;;;1.70;79.27;101253.03;1824667;78;20895;-66
2022/02/12 01:43:39;;;;;;;61.50;36.20;;;;;;;1.73;79.50;101255.56;1824911;78;20911;-67
2022/02/12 01:46:06;;;;;;;59.55;36.88;;;;;;;1.76;79.61;101256.84;1824845;78;20985;-67
2022/02/12 01:48:33;;;;;;;61.80;37.08;;;;;;;1.78;79.61;101253.80;1824648;77;20883;-67
2022/02/12 01:51:02;;;;;;;60.08;38.10;;;;;;;1.80;79.76;101250.76;1824679;77;20974;-68
2022/02/12 01:53:29;;;;;;;56.98;33.95;;;;;;;1.84;79.79;101246.38;1824698;78;21444;-68
2022/02/12 01:55:56;;;;;;;51.70;31.97;;;;;;;1.87;79.71;101252.82;1824669;78;20903;-67
2022/02/12 01:58:23;;;;;;;52.93;32.30;;;;;;;1.88;79.42;101245.47;1824847;77;21151;-68
2022/02/12 02:00:49;;;;;;;57.83;35.45;;;;;;;1.91;79.14;101254.91;1824653;78;20880;-67
2022/02/12 02:03:16;;;;;;;54.20;32.73;;;;;;;1.85;78.90;101261.88;1824681;77;20887;-66
2022/02/12 02:05:43;;;;;;;49.23;29.18;;;;;;;1.79;78.83;101256.78;1824761;78;20872;-67
2022/02/12 02:08:10;;;;;;;47.33;28.15;;;;;;;1.75;78.94;101252.53;1824828;78;20958;-69
2022/02/12 02:10:37;;;;;;;48.33;27.48;;;;;;;1.75;79.04;101254.27;1824854;77;21538;-67
2022/02/12 02:13:04;;;;;;;47.23;28.83;;;;;;;1.73;79.11;101254.27;1825023;78;21377;-67
2022/02/12 02:15:31;;;;;;;45.28;28.45;;;;;;;1.73;79.19;101258.16;1824835;78;20911;-67
2022/02/12 02:17:58;;;;;;;44.15;27.20;;;;;;;1.73;79.26;101259.45;1824852;78;20934;-67
2022/02/12 02:20:25;;;;;;;42.13;26.37;;;;;;;1.76;79.24;101259.88;1824739;78;21017;-67
2022/02/12 02:22:57;;;;;;;43.68;28.73;;;;;;;1.75;79.20;101253.81;1824642;78;21472;-68
2022/02/12 02:25:24;;;;;;;44.70;28.42;;;;;;;1.77;79.40;101253.81;1824747;78;21305;-68
2022/02/12 02:27:51;;;;;;;44.77;26.93;;;;;;;1.81;79.66;101257.63;1824751;78;21452;-70
2022/02/12 02:30:21;;;;;;;49.80;29.00;;;;;;;1.89;79.70;101251.48;1825053;78;20933;-67
2022/02/12 02:32:48;;;;;;;42.58;27.20;;;;;;;1.97;79.64;101252.24;1825192;78;20978;-67
2022/02/12 02:38:18;;;;;;;43.75;28.42;;;;;;;2.10;79.22;101242.58;1798550;79;22586;-67
2022/02/12 02:40:48;;;;;;;43.83;27.48;;;;;;;2.05;79.16;101246.08;1758293;80;20889;-66
2022/02/12 02:43:14;;;;;;;52.58;33.55;;;;;;;2.05;79.10;101247.37;1758375;81;21146;-67
2022/02/12 02:45:41;;;;;;;52.93;33.35;;;;;;;2.05;79.14;101245.23;1758212;81;20959;-67
2022/02/12 02:48:08;;;;;;;44.70;29.70;;;;;;;2.04;79.42;101251.27;1758239;81;21504;-67
2022/02/12 02:55:59;;;;;;;49.50;30.90;;;;;;;2.15;79.80;101256.29;1713373;81;22116;-67
2022/02/12 02:58:44;;;;;;;46.68;28.83;;;;;;;2.18;79.99;101255.81;1758204;80;20892;-67
2022/02/12 03:01:17;;;;;;;47.88;32.38;;;;;;;2.21;79.69;101252.33;1758435;81;20987;-68
2022/02/12 03:03:46;;;;;;;45.17;28.90;;;;;;;2.20;79.41;101255.77;1758455;81;20940;-67
2022/02/12 03:06:14;;;;;;;50.52;30.82;;;;;;;2.18;79.25;101249.35;1758296;81;20965;-69
2022/02/12 03:08:41;;;;;;;45.78;30.25;;;;;;;2.17;79.21;101251.95;1758495;80;21106;-68
2022/02/12 03:11:11;;;;;;;44.05;29.67;;;;;;;2.18;79.17;101260.99;1758289;81;20924;-69
2022/02/12 03:13:38;;;;;;;47.17;28.05;;;;;;;2.20;79.18;101264.41;1759116;81;20880;-68
2022/02/12 03:16:08;;;;;;;47.55;29.77;;;;;;;2.26;79.14;101262.16;1758320;80;21422;-67
2022/02/12 03:18:36;;;;;;;49.30;29.72;;;;;;;2.30;79.11;101255.21;1758633;81;21421;-67
2022/02/12 03:21:03;;;;;;;49.23;31.50;;;;;;;2.34;79.02;101255.59;1758646;81;21456;-67
2022/02/12 03:23:30;;;;;;;66.12;36.00;;;;;;;2.36;78.79;101244.33;1758203;81;21034;-67
2022/02/12 03:25:57;;;;;;;65.40;40.65;;;;;;;2.34;78.67;101235.73;1758264;81;20931;-67
2022/02/12 03:28:24;;;;;;;70.42;44.85;;;;;;;2.31;78.56;101233.62;1758397;81;20909;-67
2022/02/12 03:30:51;;;;;;;68.25;43.23;;;;;;;2.23;78.62;101222.95;1758543;80;21223;-67
2022/02/12 03:33:18;;;;;;;57.60;36.00;;;;;;;2.18;78.73;101222.19;1758690;81;21059;-66
2022/02/12 03:35:50;;;;;;;50.90;32.45;;;;;;;2.16;78.87;101217.47;1758195;81;21015;-66
2022/02/12 03:38:20;;;;;;;47.10;29.75;;;;;;;2.14;78.91;101216.64;1746315;81;21426;-67
2022/02/12 03:40:50;;;;;;;40.25;28.90;;;;;;;2.13;79.31;101211.48;1745009;80;21525;-68
2022/02/12 03:43:17;;;;;;;51.08;31.70;;;;;;;2.15;79.88;101201.52;1745218;82;21003;-66
2022/02/12 03:45:44;;;;;;;38.28;26.27;;;;;;;2.18;80.19;101203.19;1745070;82;21107;-68
2022/02/12 03:48:11;;;;;;;42.10;26.90;;;;;;;2.22;80.31;101194.51;1744937;82;21533;-68
2022/02/12 03:50:39;;;;;;;37.63;26.02;;;;;;;2.28;80.66;101194.41;1744568;82;21016;-67
2022/02/12 03:53:07;;;;;;;36.00;23.83;;;;;;;2.39;80.95;101200.71;1744530;82;20920;-67
2022/02/12 03:55:37;;;;;;;35.03;23.35;;;;;;;2.48;81.03;101195.38;1744684;82;20991;-68
2022/02/12 03:58:05;;;;;;;37.48;23.92;;;;;;;2.56;81.08;101206.46;1744552;82;21190;-67
2022/02/12 04:00:34;;;;;;;33.33;21.07;;;;;;;2.63;81.15;101209.34;1744490;82;21011;-67
2022/02/12 04:03:00;;;;;;;27.95;20.32;;;;;;;2.70;81.17;101205.76;1744695;81;20889;-67
2022/02/12 04:05:27;;;;;;;30.85;21.57;;;;;;;2.78;81.10;101199.58;1744621;82;20974;-68
2022/02/12 04:07:56;;;;;;;32.75;22.50;;;;;;;2.85;81.12;101192.98;1744794;82;20920;-67
2022/02/12 04:10:24;;;;;;;37.05;23.70;;;;;;;2.94;80.89;101188.52;1744639;81;21867;-67
2022/02/12 04:12:52;;;;;;;33.18;22.27;;;;;;;3.00;80.73;101186.66;1744604;80;20972;-68
2022/02/12 04:15:19;;;;;;;34.70;22.73;;;;;;;3.06;80.46;101182.63;1744594;82;20924;-67
2022/02/12 04:17:45;;;;;;;35.73;23.87;;;;;;;3.08;80.16;101176.98;1744669;82;21648;-67
2022/02/12 04:20:15;;;;;;;42.80;28.00;;;;;;;3.09;79.93;101177.41;1744585;82;20894;-68
2022/02/12 04:22:42;;;;;;;39.88;26.55;;;;;;;3.10;79.82;101175.21;1744513;81;22019;-68
2022/02/12 04:25:12;;;;;;;43.60;28.38;;;;;;;3.13;79.60;101175.59;1744578;82;21025;-67
2022/02/12 04:27:38;;;;;;;48.48;31.15;;;;;;;3.16;79.62;101171.66;1744761;80;20894;-66
2022/02/12 04:30:06;;;;;;;43.40;29.02;;;;;;;3.19;79.41;101172.87;1744661;82;20921;-67
2022/02/12 04:32:35;;;;;;;41.20;26.57;;;;;;;3.23;79.20;101169.80;1744568;82;20881;-67
2022/02/12 04:35:02;;;;;;;41.77;28.20;;;;;;;3.27;79.11;101168.85;1744517;82;21756;-67
2022/02/12 04:37:30;;;;;;;47.17;30.60;;;;;;;3.30;79.11;101158.41;1749221;81;20888;-68
2022/02/12 04:39:58;;;;;;;49.85;32.05;;;;;;;3.34;79.00;101160.50;1757795;81;20881;-67
2022/02/12 04:42:25;;;;;;;50.28;35.10;;;;;;;3.37;79.04;101160.42;1758028;81;21469;-68
2022/02/12 04:44:52;;;;;;;56.63;34.10;;;;;;;3.37;78.87;101156.09;1757949;81;20976;-66
2022/02/12 04:47:21;;;;;;;56.10;36.25;;;;;;;3.37;78.80;101150.05;1757846;80;21015;-66
2022/02/12 04:49:49;;;;;;;62.80;36.23;;;;;;;3.38;78.72;101151.75;1757864;80;20837;-68
2022/02/12 04:52:18;;;;;;;54.63;35.38;;;;;;;3.36;78.68;101145.32;1757837;81;20900;-67
2022/02/12 04:54:45;;;;;;;46.50;30.37;;;;;;;3.35;78.77;101140.16;1757813;81;20929;-68
2022/02/12 04:57:13;;;;;;;41.05;28.75;;;;;;;3.33;78.84;101137.59;1757795;81;21425;-68
2022/02/12 04:59:40;;;;;;;44.63;28.42;;;;;;;3.32;78.91;101143.23;1757758;81;21097;-66
2022/02/12 05:02:07;;;;;;;41.00;24.82;;;;;;;3.31;78.98;101136.35;1757853;81;20912;-69
2022/02/12 05:04:34;;;;;;;39.08;27.58;;;;;;;3.31;78.98;101135.05;1757882;81;20936;-69
2022/02/12 05:07:01;;;;;;;40.85;26.65;;;;;;;3.30;78.85;101137.67;1757863;80;20959;-67
2022/02/12 05:09:31;;;;;;;43.58;29.82;;;;;;;3.32;78.83;101134.61;1758170;81;20877;-67
2022/02/12 05:11:57;;;;;;;40.55;26.95;;;;;;;3.31;78.83;101133.76;1757840;81;21619;-69
2022/02/12 05:14:29;;;;;;;44.35;29.10;;;;;;;3.30;78.90;101131.19;1757874;81;20892;-67
2022/02/12 05:16:53;;;;;;;41.28;26.80;;;;;;;3.29;79.09;101134.66;1757464;80;20916;-69
2022/02/12 05:19:20;;;;;;;43.25;25.12;;;;;;;3.28;79.28;101141.58;1757904;81;20940;-68
2022/02/12 05:21:48;;;;;;;36.68;25.08;;;;;;;3.28;79.46;101138.98;1758207;81;20880;-68
2022/02/12 05:24:14;;;;;;;40.92;27.32;;;;;;;3.26;79.66;101135.58;1757737;80;21179;-67
2022/02/12 05:26:41;;;;;;;40.23;27.42;;;;;;;3.26;79.79;101142.50;1758072;81;20852;-69
2022/02/12 05:29:08;;;;;;;39.63;27.60;;;;;;;3.25;79.91;101142.95;1757777;81;20931;-68
2022/02/12 05:31:36;;;;;;;45.40;29.42;;;;;;;3.26;79.94;101141.21;1757778;80;20936;-72
2022/02/12 05:34:03;;;;;;;44.67;27.50;;;;;;;3.27;79.97;101134.70;1758024;81;21501;-68
2022/02/12 05:36:30;;;;;;;38.88;26.35;;;;;;;3.29;79.93;101135.95;1757770;81;21148;-68
2022/02/12 05:38:57;;;;;;;37.83;24.85;;;;;;;3.31;79.88;101136.35;1746297;80;20921;-68
2022/02/12 05:41:25;;;;;;;34.92;23.50;;;;;;;3.34;79.68;101134.12;1744435;81;21394;-69
2022/02/12 05:43:52;;;;;;;36.60;24.43;;;;;;;3.35;79.59;101126.75;1744370;82;20968;-67
2022/02/12 05:46:19;;;;;;;33.70;22.45;;;;;;;3.37;79.52;101122.84;1744839;82;20932;-69
2022/02/12 05:48:46;;;;;;;39.45;26.48;;;;;;;3.39;79.30;101121.91;1744497;82;21123;-70
2022/02/12 05:51:18;;;;;;;38.00;25.12;;;;;;;3.40;79.17;101126.64;1744710;82;21393;-68
2022/02/12 05:53:45;;;;;;;42.17;28.05;;;;;;;3.37;79.12;101114.61;1744565;81;20853;-67
2022/02/12 05:56:11;;;;;;;41.88;28.73;;;;;;;3.36;79.11;101118.52;1744431;82;21003;-68
2022/02/12 05:58:38;;;;;;;41.70;27.40;;;;;;;3.34;79.23;101123.77;1744499;82;20912;-67
2022/02/12 06:01:05;;;;;;;38.95;26.37;;;;;;;3.32;79.40;101122.48;1744564;81;21135;-68
2022/02/12 06:03:32;;;;;;;36.50;24.77;;;;;;;3.28;79.55;101107.04;1744406;81;20920;-68
2022/02/12 06:05:58;;;;;;;38.90;23.87;;;;;;;3.24;79.83;101111.87;1744497;81;20913;-68
2022/02/12 06:08:25;;;;;;;37.38;25.25;;;;;;;3.20;80.16;101119.30;1744524;82;21363;-68
2022/02/12 06:10:53;;;;;;;40.95;23.57;;;;;;;3.19;80.34;101114.57;1744419;82;20909;-68
2022/02/12 06:13:20;;;;;;;38.73;24.82;;;;;;;3.19;80.62;101115.86;1744470;80;21158;-68
2022/02/12 06:15:47;;;;;;;47.15;27.93;;;;;;;3.21;80.78;101110.66;1744470;82;20964;-68
2022/02/12 06:18:14;;;;;;;41.60;27.25;;;;;;;3.23;80.92;101107.14;1744378;82;20984;-68
2022/02/12 06:20:41;;;;;;;45.88;26.97;;;;;;;3.27;81.03;101107.94;1744410;80;21004;-67
2022/02/12 06:23:08;;;;;;;47.25;28.40;;;;;;;3.31;81.18;101106.55;1744549;82;20936;-68
2022/02/12 06:25:35;;;;;;;44.85;27.50;;;;;;;3.32;81.29;101099.16;1744599;80;21783;-68
2022/02/12 06:28:02;;;;;;;44.27;27.80;;;;;;;3.35;81.49;101089.16;1744696;82;20996;-68
2022/02/12 06:30:29;;;;;;;44.98;27.15;;;;;;;3.37;81.68;101077.02;1744517;82;20885;-69
2022/02/12 06:32:59;;;;;;;42.50;26.10;;;;;;;3.41;81.73;101085.14;1744382;81;20924;-70
2022/02/12 06:35:28;;;;;;;41.35;25.17;;;;;;;3.44;81.79;101082.92;1744809;81;20920;-68
2022/02/12 06:37:58;;;;;;;39.45;23.83;;;;;;;3.46;81.85;101088.92;1744712;81;21692;-68
2022/02/12 06:40:25;;;;;;;38.92;24.65;;;;;;;3.50;81.94;101091.86;1744518;82;20921;-70
2022/02/12 06:42:53;;;;;;;35.55;23.65;;;;;;;3.51;82.01;101081.88;1744496;80;20917;-68
2022/02/12 06:45:20;;;;;;;42.98;26.25;;;;;;;3.52;82.04;101084.45;1744416;82;20869;-68
2022/02/12 06:47:47;;;;;;;39.58;22.82;;;;;;;3.57;82.20;101088.68;1744299;82;20933;-68
2022/02/12 06:50:14;;;;;;;43.65;26.23;;;;;;;3.60;82.17;101083.41;1744447;82;21537;-69
2022/02/12 06:52:43;;;;;;;41.37;25.60;;;;;;;3.62;82.18;101084.23;1744393;82;21506;-70
2022/02/12 06:55:11;;;;;;;39.20;25.52;;;;;;;3.64;82.22;101075.97;1744322;81;20976;-66
2022/02/12 06:57:38;;;;;;;41.55;25.90;;;;;;;3.65;82.33;101082.42;1744338;82;20893;-68
2022/02/12 07:00:08;;;;;;;43.17;26.25;;;;;;;3.68;82.35;101081.50;1744414;81;21449;-67
2022/02/12 07:02:36;;;;;;;44.15;25.02;;;;;;;3.68;82.32;101082.34;1744413;82;21176;-67
2022/02/12 07:05:05;;;;;;;38.17;24.50;;;;;;;3.68;82.36;101087.53;1744691;82;21545;-69
2022/02/12 07:07:47;;;;;;;40.73;25.43;;;;;;;3.70;82.45;101096.58;1744436;81;20936;-70
2022/02/12 07:10:14;;;;;;;44.33;25.95;;;;;;;3.68;82.45;101091.87;1735015;82;21057;-70
2022/02/12 07:12:42;;;;;;;38.78;25.90;;;;;;;3.66;82.44;101089.30;1744450;82;21023;-68
2022/02/12 07:15:08;;;;;;;46.90;26.70;;;;;;;3.68;82.48;101092.72;1744696;81;21104;-68
2022/02/12 07:17:39;;;;;;;41.55;25.82;;;;;;;3.67;82.69;101097.51;1744416;82;20964;-70
2022/02/12 07:20:07;;;;;;;43.75;26.68;;;;;;;3.67;82.82;101093.62;1744534;81;20972;-69
2022/02/12 07:22:34;;;;;;;42.93;27.70;;;;;;;3.69;82.93;101097.45;1743558;81;20904;-70
2022/02/12 07:25:01;;;;;;;42.27;27.42;;;;;;;3.69;83.02;101101.34;1744533;81;20885;-68
2022/02/12 07:27:28;;;;;;;37.63;26.05;;;;;;;3.71;83.16;101103.03;1744503;82;22019;-67
2022/02/12 07:29:54;;;;;;;37.48;24.95;;;;;;;3.74;83.17;101102.11;1744753;82;20932;-68
2022/02/12 07:32:21;;;;;;;44.48;26.52;;;;;;;3.77;83.20;101105.06;1744514;82;22537;-69
2022/02/12 07:34:48;;;;;;;39.18;27.62;;;;;;;3.77;83.06;101103.77;1744932;82;21486;-68
2022/02/12 07:37:15;;;;;;;43.30;27.58;;;;;;;3.78;83.11;101101.56;1744821;82;20932;-69
2022/02/12 07:39:42;;;;;;;44.45;28.55;;;;;;;3.78;83.13;101106.34;1756610;81;21147;-68
2022/02/12 07:42:08;;;;;;;45.48;31.23;;;;;;;3.78;83.21;101108.93;1757950;81;20916;-68
2022/02/12 07:44:35;;;;;;;50.80;32.53;;;;;;;3.79;83.28;101113.67;1757958;80;20935;-69
2022/02/12 07:47:03;;;;;;;55.63;35.83;;;;;;;3.79;83.45;101110.62;1757804;80;20932;-69
2022/02/12 07:49:30;;;;;;;56.02;35.88;;;;;;;3.81;83.43;101111.89;1758017;81;20892;-68
2022/02/12 07:51:57;;;;;;;53.45;37.55;;;;;;;3.80;83.51;101113.64;1757960;81;21127;-68
2022/02/12 07:54:24;;;;;;;57.40;35.00;;;;;;;3.80;83.65;101116.23;1757552;81;20924;-68
2022/02/12 07:56:54;;;;;;;58.52;38.83;;;;;;;3.85;83.77;101123.91;1757807;80;20870;-68
2022/02/12 07:59:22;;;;;;;57.40;36.55;;;;;;;3.88;83.85;101130.30;1757866;81;20999;-68
2022/02/12 08:01:49;;;;;;;53.30;34.00;;;;;;;3.89;83.84;101133.30;1757967;81;20963;-68
2022/02/12 08:04:15;;;;;;;50.25;31.52;;;;;;;3.92;83.95;101129.34;1759743;81;21950;-70
2022/02/12 08:09:28;;;;;;;48.02;32.10;;;;;;;4.01;84.07;101123.08;1758446;81;20908;-69
2022/02/12 08:12:11;;;;;;;42.65;28.12;;;;;;;4.05;84.04;101132.50;1758373;81;21378;-69
2022/02/12 08:14:23;;;;;;;40.12;27.07;;;;;;;4.07;84.00;101132.86;1754684;81;20967;-68
2022/02/12 08:16:50;;;;;;;53.60;30.70;;;;;;;4.10;83.92;101132.78;1758249;81;21086;-68
2022/02/12 08:19:18;;;;;;;46.30;27.60;;;;;;;4.11;83.95;101138.81;1758051;81;20891;-69
2022/02/12 08:21:45;;;;;;;41.80;26.45;;;;;;;4.13;83.90;101143.06;1758052;81;20841;-67
2022/02/12 08:24:12;;;;;;;42.58;26.65;;;;;;;4.17;83.96;101148.20;1757843;81;20947;-71
2022/02/12 08:26:39;;;;;;;39.35;25.68;;;;;;;4.21;83.95;101155.87;1758138;81;21450;-67
2022/02/12 08:29:06;;;;;;;40.12;27.65;;;;;;;4.23;83.73;101157.98;1757850;80;21110;-68
2022/02/12 08:31:32;;;;;;;42.98;27.35;;;;;;;4.23;83.58;101164.93;1757908;80;20971;-69
2022/02/12 08:33:59;;;;;;;39.50;28.30;;;;;;;4.22;83.58;101165.80;1757881;81;20916;-68
2022/02/12 08:36:26;;;;;;;40.38;28.30;;;;;;;4.22;83.54;101168.41;1757855;81;20903;-68
2022/02/12 08:38:53;;;;;;;44.90;31.68;;;;;;;4.22;83.61;101162.75;1748983;81;20988;-70
2022/02/12 08:41:19;;;;;;;42.03;28.62;;;;;;;4.25;83.67;101165.30;1736137;82;21775;-66
2022/02/12 08:43:46;;;;;;;37.33;28.57;;;;;;;4.28;83.57;101155.28;1736066;82;20913;-69
2022/02/12 08:46:13;;;;;;;39.98;27.62;;;;;;;4.32;83.51;101154.31;1736048;82;20964;-70
2022/02/12 08:48:41;;;;;;;39.85;27.15;;;;;;;4.35;83.43;101163.30;1736090;81;20940;-68
2022/02/12 08:51:08;;;;;;;41.65;28.98;;;;;;;4.38;83.30;101161.95;1736099;82;21394;-69
2022/02/12 08:53:35;;;;;;;36.05;26.35;;;;;;;4.42;83.27;101146.67;1736270;82;21104;-72
2022/02/12 08:56:04;;;;;;;39.85;28.42;;;;;;;4.44;83.15;101141.00;1735951;82;20976;-71
2022/02/12 08:58:34;;;;;;;40.43;26.20;;;;;;;4.49;83.12;101144.34;1735852;82;21508;-70
2022/02/12 09:01:01;;;;;;;40.70;28.38;;;;;;;4.52;82.76;101120.03;1735994;82;20893;-72
2022/02/12 09:03:28;;;;;;;43.48;29.15;;;;;;;4.55;82.68;101140.72;1736102;82;20889;-71
2022/02/12 09:05:57;;;;;;;41.88;29.25;;;;;;;4.59;82.63;101152.73;1736096;82;21134;-74
2022/02/12 09:08:24;;;;;;;36.93;27.48;;;;;;;4.67;82.54;101158.59;1736234;82;20991;-71
2022/02/12 09:10:51;;;;;;;37.05;26.68;;;;;;;4.72;82.35;101158.00;1736133;81;21370;-78
2022/02/12 09:13:18;;;;;;;38.92;27.55;;;;;;;4.76;82.08;101158.79;1736438;82;21459;-69
2022/02/12 09:15:45;;;;;;;37.03;27.20;;;;;;;4.81;81.94;101145.67;1736040;81;20937;-80
2022/02/12 09:18:12;;;;;;;50.17;31.35;;;;;;;4.85;81.88;101144.23;1736178;82;21983;-74
2022/02/12 09:20:40;;;;;;;42.70;29.15;;;;;;;4.91;81.68;101147.09;1736197;81;20932;-73
2022/02/12 09:23:07;;;;;;;47.33;32.55;;;;;;;4.95;81.43;101150.02;1736069;82;21560;-75
2022/02/12 09:25:34;;;;;;;43.95;30.45;;;;;;;4.97;81.12;101157.33;1736083;82;21017;-78
2022/02/12 09:28:03;;;;;;;43.52;29.60;;;;;;;4.98;80.93;101153.40;1736191;81;20988;-84
2022/02/12 09:30:32;;;;;;;39.75;30.43;;;;;;;4.96;80.59;101147.39;1736283;81;20854;-77
2022/02/12 09:32:59;;;;;;;43.63;30.45;;;;;;;4.94;80.46;101153.53;1736190;82;21410;-78
2022/02/12 09:35:26;;;;;;;40.25;28.05;;;;;;;4.93;80.48;101160.45;1736246;82;21418;-76
2022/02/12 09:37:53;;;;;;;43.20;28.77;;;;;;;4.94;80.42;101167.37;1736109;82;21326;-69
2022/02/12 09:40:20;;;;;;;42.62;29.80;;;;;;;4.96;80.32;101167.33;1735969;81;20889;-73
2022/02/12 09:42:47;;;;;;;43.73;28.98;;;;;;;4.99;80.38;101168.53;1736171;82;21043;-71
2022/02/12 09:45:14;;;;;;;36.65;27.05;;;;;;;5.04;80.27;101165.80;1736636;82;20909;-71
2022/02/12 09:47:48;;;;;;;42.73;29.70;;;;;;;5.07;80.05;101157.48;1736934;82;20980;-70
2022/02/12 09:50:18;;;;;;;44.35;29.57;;;;;;;5.10;79.90;101157.38;1737219;81;20960;-71
2022/02/12 09:52:52;;;;;;;44.73;28.30;;;;;;;5.15;79.77;101153.35;1736848;81;21411;-70
2022/02/12 09:55:21;;;;;;;39.53;29.75;;;;;;;5.21;79.59;101138.03;1737359;81;21609;-70
2022/02/12 09:57:47;;;;;;;41.83;29.87;;;;;;;5.28;79.49;101148.20;1717303;82;20841;-71
2022/02/12 10:00:17;;;;;;;40.52;28.80;;;;;;;5.32;79.30;101148.52;1739430;82;20968;-72
2022/02/12 10:02:46;;;;;;;45.78;31.82;;;;;;;5.37;79.09;101149.67;1684625;85;21032;-72
2022/02/12 10:05:23;;;;;;;44.45;30.27;;;;;;;5.41;78.83;101151.30;1684541;85;21011;-70
2022/02/12 10:08:15;;;;;;;51.18;30.17;;;;;;;5.43;78.65;101150.80;1682222;85;21146;-71
2022/02/12 10:10:44;;;;;;;34.80;26.75;;;;;;;5.45;78.27;101162.44;1681140;85;20976;-70
2022/02/12 10:13:30;;;;;;;44.95;26.82;;;;;;;5.45;78.09;101159.84;1681165;85;20984;-70
2022/02/12 10:16:00;;;;;;;38.23;27.07;;;;;;;5.44;77.94;101168.55;1681182;85;21398;-69
2022/02/12 10:18:35;;;;;;;36.42;26.45;;;;;;;5.42;77.70;101163.38;1681422;85;20916;-73
2022/02/12 10:21:02;;;;;;;39.78;26.73;;;;;;;5.40;77.65;101176.45;1681304;84;21573;-74
2022/02/12 10:23:31;;;;;;;37.75;26.50;;;;;;;5.40;77.47;101185.98;1681385;85;21372;-73
2022/02/12 10:26:07;;;;;;;36.35;23.83;;;;;;;5.39;77.44;101186.89;1681225;85;20949;-77
2022/02/12 10:28:42;;;;;;;40.90;27.93;;;;;;;5.37;77.38;101173.08;1681580;85;21085;-75
2022/02/12 10:31:10;;;;;;;44.33;27.80;;;;;;;5.33;77.08;101176.20;1681155;84;20913;-73
2022/02/12 10:33:47;;;;;;;39.80;26.62;;;;;;;5.29;76.98;101180.25;1681469;85;21084;-78
2022/02/12 10:36:18;;;;;;;39.53;26.85;;;;;;;5.26;77.26;101176.45;1681238;85;20921;-81
2022/02/12 10:38:50;;;;;;;39.55;24.90;;;;;;;5.26;77.23;101174.69;1682840;84;21021;-75
2022/02/12 10:41:21;;;;;;;42.90;26.77;;;;;;;5.27;76.98;101188.53;1721700;82;21073;-80
2022/02/12 10:43:53;;;;;;;37.70;26.23;;;;;;;5.24;77.03;101194.69;1722315;83;20899;-86
2022/02/12 10:46:21;;;;;;;40.45;25.32;;;;;;;5.25;77.12;101189.06;1722550;82;21223;-88
2022/02/12 10:48:51;;;;;;;37.85;24.77;;;;;;;5.21;76.82;101193.48;1723120;83;20856;-86
2022/02/12 10:51:18;;;;;;;31.60;21.27;;;;;;;5.20;77.05;101198.26;1724681;82;20885;-89
2022/02/12 10:54:02;;;;;;;34.83;23.12;;;;;;;5.22;76.79;101196.47;1724897;82;20927;-88
2022/02/12 10:56:55;;;;;;;32.73;21.42;;;;;;;5.22;76.90;101193.03;1724863;83;20892;-88
2022/02/12 10:59:24;;;;;;;33.63;22.22;;;;;;;5.24;76.74;101193.84;1722792;83;21161;-83
2022/02/12 11:01:52;;;;;;;32.40;21.42;;;;;;;5.23;76.83;101195.59;1722195;82;20900;-80
2022/02/12 11:04:19;;;;;;;32.10;21.00;;;;;;;5.23;76.97;101191.69;1722481;82;20935;-85
2022/02/12 11:06:47;;;;;;;28.70;20.12;;;;;;;5.25;76.79;101193.80;1722249;82;20966;-80
2022/02/12 11:09:15;;;;;;;30.77;20.30;;;;;;;5.23;76.70;101195.59;1722485;82;21002;-80
2022/02/12 11:11:42;;;;;;;27.95;18.82;;;;;;;5.25;76.41;101201.61;1722013;82;21130;-83
2022/02/12 11:14:10;;;;;;;26.15;18.07;;;;;;;5.23;76.29;101201.25;1722149;82;20903;-81
2022/02/12 11:16:37;;;;;;;23.05;16.50;;;;;;;5.26;76.31;101205.05;1722744;82;20923;-90
2022/02/12 11:19:05;;;;;;;21.87;15.70;;;;;;;5.26;76.28;101222.80;1722740;82;21524;-82
2022/02/12 11:21:37;;;;;;;19.75;12.43;;;;;;;5.25;76.19;101217.66;1722057;82;20971;-78
2022/02/12 11:24:05;;;;;;;16.85;12.37;;;;;;;5.21;75.78;101222.08;1721794;82;21219;-83
2022/02/12 11:26:44;;;;;;;13.95;10.50;;;;;;;5.11;75.79;101220.63;1722734;82;20939;-88
2022/02/12 11:29:37;;;;;;;12.88;9.95;;;;;;;5.07;75.97;101239.37;1724004;82;20883;-90
2022/02/12 11:32:17;;;;;;;11.90;9.73;;;;;;;5.04;75.76;101245.09;1723793;82;20975;-85